Time,TemperatureF,DewpointF,PressureIn,WindDirection,WindDirectionDegrees,WindSpeedMPH,WindSpeedGustMPH,Humidity,HourlyPrecipIn,Conditions,Clouds,dailyrainin,SoftwareType,DateUTC
2013-07-30 00:02:00,65.0,39.0,29.73,WNW,294,1.0,-999.0,38,-99.99,,,-99.99,,2013-07-30 06:02:00,
2013-07-30 00:12:00,65.0,39.0,29.73,WNW,294,1.0,-999.0,38,-99.99,,,-99.99,,2013-07-30 06:12:00,
2013-07-30 00:22:00,64.0,40.0,29.74,WNW,294,0.0,-999.0,42,-99.99,,,-99.99,,2013-07-30 06:22:00,
2013-07-30 00:32:00,62.0,40.0,29.75,WNW,294,0.0,-999.0,44,-99.99,,,-99.99,,2013-07-30 06:32:00,
2013-07-30 00:43:00,62.0,40.0,29.75,WNW,294,0.0,-999.0,44,-99.99,,,-99.99,,2013-07-30 06:43:00,
2013-07-30 00:53:00,63.0,39.0,29.76,WNW,294,0.0,-999.0,41,-99.99,,,-99.99,,2013-07-30 06:53:00,
2013-07-30 01:02:00,64.0,39.0,29.74,WNW,294,0.0,-999.0,40,-99.99,,,-99.99,,2013-07-30 07:02:00,
2013-07-30 01:13:00,64.0,39.0,29.74,WNW,294,0.0,-999.0,40,-99.99,,,-99.99,,2013-07-30 07:13:00,
2013-07-30 01:23:00,62.0,39.0,29.74,WNW,294,2.0,-999.0,43,-99.99,,,-99.99,,2013-07-30 07:23:00,
2013-07-30 01:33:00,62.0,39.0,29.75,WNW,294,3.0,-999.0,43,-99.99,,,-99.99,,2013-07-30 07:33:00,
2013-07-30 01:43:00,62.0,39.0,29.75,WNW,294,3.0,-999.0,43,-99.99,,,-99.99,,2013-07-30 07:43:00,
2013-07-30 01:53:00,62.0,42.0,29.75,North,0,2.0,-999.0,48,-99.99,,,-99.99,,2013-07-30 07:53:00,
2013-07-30 02:03:00,62.0,42.0,29.74,North,0,2.0,-999.0,47,-99.99,,,-99.99,,2013-07-30 08:03:00,
2013-07-30 02:12:00,62.0,42.0,29.74,North,0,2.0,-999.0,47,-99.99,,,-99.99,,2013-07-30 08:12:00,
2013-07-30 02:23:00,61.0,47.0,29.75,ENE,70,5.0,-999.0,60,-99.99,,,-99.99,,2013-07-30 08:23:00,
2013-07-30 02:33:00,61.0,46.0,29.75,ENE,70,1.0,-999.0,57,-99.99,,,-99.99,,2013-07-30 08:33:00,
2013-07-30 02:43:00,61.0,46.0,29.75,ENE,70,1.0,-999.0,57,-99.99,,,-99.99,,2013-07-30 08:43:00,
2013-07-30 02:53:00,63.0,49.0,29.73,WNW,285,6.0,-999.0,60,-99.99,,,-99.99,,2013-07-30 08:53:00,
2013-07-30 03:03:00,64.0,51.0,29.75,NE,48,2.0,-999.0,62,-99.99,,,-99.99,,2013-07-30 09:03:00,
2013-07-30 03:13:00,64.0,51.0,29.75,NE,48,2.0,-999.0,62,-99.99,,,-99.99,,2013-07-30 09:13:00,
2013-07-30 03:23:00,63.0,49.0,29.72,North,356,5.0,-999.0,60,-99.99,,,-99.99,,2013-07-30 09:23:00,
2013-07-30 03:33:00,62.0,50.0,29.72,North,356,0.0,-999.0,65,-99.99,,,-99.99,,2013-07-30 09:33:00,
2013-07-30 03:43:00,62.0,50.0,29.72,North,356,0.0,-999.0,65,-99.99,,,-99.99,,2013-07-30 09:43:00,
2013-07-30 03:53:00,60.0,50.0,29.74,North,356,0.0,-999.0,69,-99.99,,,-99.99,,2013-07-30 09:53:00,
2013-07-30 04:02:00,59.0,48.0,29.78,North,356,1.0,-999.0,68,-99.99,,,-99.99,,2013-07-30 10:02:00,
2013-07-30 04:12:00,59.0,48.0,29.78,North,356,1.0,-999.0,68,-99.99,,,-99.99,,2013-07-30 10:12:00,
2013-07-30 04:22:00,59.0,48.0,29.78,North,356,0.0,-999.0,67,-99.99,,,-99.99,,2013-07-30 10:22:00,
2013-07-30 04:32:00,58.0,45.0,29.80,North,356,1.0,-999.0,63,-99.99,,,-99.99,,2013-07-30 10:32:00,
2013-07-30 04:43:00,58.0,45.0,29.80,North,356,1.0,-999.0,63,-99.99,,,-99.99,,2013-07-30 10:43:00,
2013-07-30 04:52:00,59.0,45.0,29.81,North,1,2.0,-999.0,60,-99.99,,,-99.99,,2013-07-30 10:52:00,
2013-07-30 05:02:00,58.0,45.0,29.77,NE,34,2.0,-999.0,61,-99.99,,,-99.99,,2013-07-30 11:02:00,
2013-07-30 05:11:00,58.0,45.0,29.77,NE,34,2.0,-999.0,61,-99.99,,,-99.99,,2013-07-30 11:11:00,
2013-07-30 05:22:00,58.0,45.0,29.78,NE,35,2.0,-999.0,63,-99.99,,,-99.99,,2013-07-30 11:22:00,
2013-07-30 05:33:00,58.0,45.0,29.78,NNE,20,2.0,-999.0,63,-99.99,,,-99.99,,2013-07-30 11:33:00,
2013-07-30 05:43:00,58.0,45.0,29.78,NNE,20,2.0,-999.0,63,-99.99,,,-99.99,,2013-07-30 11:43:00,
2013-07-30 05:53:00,57.0,46.0,29.78,NE,37,2.0,-999.0,66,-99.99,,,-99.99,,2013-07-30 11:53:00,
2013-07-30 06:12:00,57.0,45.0,29.79,NE,37,2.0,-999.0,64,-99.99,,,-99.99,,2013-07-30 12:12:00,
2013-07-30 06:22:00,56.0,44.0,29.79,NE,34,0.0,-999.0,65,-99.99,,,-99.99,,2013-07-30 12:22:00,
2013-07-30 06:33:00,57.0,45.0,29.80,NE,34,0.0,-999.0,64,-99.99,,,-99.99,,2013-07-30 12:33:00,
2013-07-30 06:42:00,57.0,45.0,29.80,NE,34,0.0,-999.0,64,-99.99,,,-99.99,,2013-07-30 12:42:00,
2013-07-30 06:53:00,57.0,45.0,29.80,NE,34,0.0,-999.0,63,-99.99,,,-99.99,,2013-07-30 12:53:00,
2013-07-30 07:02:00,58.0,45.0,29.83,NE,34,1.0,-999.0,62,-99.99,,,-99.99,,2013-07-30 13:02:00,
2013-07-30 07:12:00,58.0,45.0,29.83,NE,34,1.0,-999.0,62,-99.99,,,-99.99,,2013-07-30 13:12:00,
2013-07-30 07:22:00,59.0,47.0,29.83,NE,34,2.0,-999.0,64,-99.99,,,-99.99,,2013-07-30 13:22:00,
2013-07-30 07:32:00,60.0,46.0,29.83,NE,34,1.0,-999.0,60,-99.99,,,-99.99,,2013-07-30 13:32:00,
2013-07-30 07:42:00,60.0,46.0,29.83,NE,34,1.0,-999.0,60,-99.99,,,-99.99,,2013-07-30 13:42:00,
2013-07-30 07:52:00,61.0,46.0,29.83,NNE,23,3.0,-999.0,58,-99.99,,,-99.99,,2013-07-30 13:52:00,
2013-07-30 08:02:00,63.0,46.0,29.84,NNE,24,2.0,-999.0,54,-99.99,,,-99.99,,2013-07-30 14:02:00,
2013-07-30 08:12:00,63.0,46.0,29.84,NNE,24,2.0,-999.0,54,-99.99,,,-99.99,,2013-07-30 14:12:00,
2013-07-30 08:22:00,66.0,47.0,29.83,NNE,24,0.0,-999.0,51,-99.99,,,-99.99,,2013-07-30 14:22:00,
2013-07-30 08:33:00,67.0,46.0,29.83,NNE,24,0.0,-999.0,47,-99.99,,,-99.99,,2013-07-30 14:33:00,
2013-07-30 08:43:00,67.0,46.0,29.83,NNE,24,0.0,-999.0,47,-99.99,,,-99.99,,2013-07-30 14:43:00,
2013-07-30 08:53:00,69.0,47.0,29.83,NNE,24,0.0,-999.0,46,-99.99,,,-99.99,,2013-07-30 14:53:00,
2013-07-30 09:02:00,72.0,49.0,29.83,NNE,24,0.0,-999.0,44,-99.99,,,-99.99,,2013-07-30 15:02:00,
2013-07-30 09:12:00,72.0,49.0,29.83,NNE,24,0.0,-999.0,44,-99.99,,,-99.99,,2013-07-30 15:12:00,
2013-07-30 09:23:00,74.0,48.0,29.81,NNE,24,0.0,-999.0,40,-99.99,,,-99.99,,2013-07-30 15:23:00,
2013-07-30 09:33:00,76.0,48.0,29.80,NNE,25,2.0,-999.0,37,-99.99,,,-99.99,,2013-07-30 15:33:00,
2013-07-30 09:43:00,76.0,48.0,29.80,NNE,25,2.0,-999.0,37,-99.99,,,-99.99,,2013-07-30 15:43:00,
2013-07-30 09:53:00,77.0,46.0,29.80,NNE,28,1.0,-999.0,34,-99.99,,,-99.99,,2013-07-30 15:53:00,
2013-07-30 10:02:00,78.0,45.0,29.82,NNE,29,1.0,-999.0,31,-99.99,,,-99.99,,2013-07-30 16:02:00,
2013-07-30 10:12:00,78.0,45.0,29.82,NNE,29,1.0,-999.0,31,-99.99,,,-99.99,,2013-07-30 16:12:00,
2013-07-30 10:22:00,80.0,45.0,29.80,NE,53,2.0,-999.0,29,-99.99,,,-99.99,,2013-07-30 16:22:00,
2013-07-30 10:33:00,81.0,44.0,29.81,ENE,74,1.0,-999.0,27,-99.99,,,-99.99,,2013-07-30 16:33:00,
2013-07-30 10:43:00,81.0,44.0,29.81,ENE,74,1.0,-999.0,27,-99.99,,,-99.99,,2013-07-30 16:43:00,
2013-07-30 10:52:00,82.0,45.0,29.81,East,87,1.0,-999.0,27,-99.99,,,-99.99,,2013-07-30 16:52:00,
2013-07-30 11:02:00,81.0,44.0,29.83,South,173,2.0,-999.0,27,-99.99,,,-99.99,,2013-07-30 17:02:00,
2013-07-30 11:12:00,81.0,44.0,29.83,South,173,2.0,-999.0,27,-99.99,,,-99.99,,2013-07-30 17:12:00,
2013-07-30 11:32:00,83.0,45.0,29.82,SSW,212,2.0,-999.0,26,-99.99,,,-99.99,,2013-07-30 17:32:00,
2013-07-30 11:43:00,83.0,45.0,29.82,SSW,212,2.0,-999.0,26,-99.99,,,-99.99,,2013-07-30 17:43:00,
2013-07-30 11:53:00,84.0,43.0,29.83,WSW,240,3.0,-999.0,24,-99.99,,,-99.99,,2013-07-30 17:53:00,
2013-07-30 12:03:00,85.0,43.0,29.82,WSW,244,3.0,-999.0,23,-99.99,,,-99.99,,2013-07-30 18:03:00,
2013-07-30 12:12:00,85.0,43.0,29.82,WSW,244,3.0,-999.0,23,-99.99,,,-99.99,,2013-07-30 18:12:00,
2013-07-30 12:23:00,85.0,43.0,29.82,WSW,244,3.0,-999.0,23,-99.99,,,-99.99,,2013-07-30 18:23:00,
2013-07-30 12:32:00,85.0,42.0,29.81,West,262,7.0,-999.0,22,-99.99,,,-99.99,,2013-07-30 18:32:00,
2013-07-30 12:43:00,85.0,42.0,29.81,West,262,7.0,-999.0,22,-99.99,,,-99.99,,2013-07-30 18:43:00,
2013-07-30 12:52:00,86.0,40.0,29.80,West,272,8.0,-999.0,20,-99.99,,,-99.99,,2013-07-30 18:52:00,
2013-07-30 13:12:00,87.0,41.0,29.79,WNW,288,6.0,-999.0,20,-99.99,,,-99.99,,2013-07-30 19:12:00,
2013-07-30 13:22:00,87.0,41.0,29.79,West,265,5.0,-999.0,20,-99.99,,,-99.99,,2013-07-30 19:22:00,
2013-07-30 13:33:00,87.0,41.0,29.78,SW,215,10.0,-999.0,20,-99.99,,,-99.99,,2013-07-30 19:33:00,
2013-07-30 13:44:00,87.0,41.0,29.78,SW,215,10.0,-999.0,20,-99.99,,,-99.99,,2013-07-30 19:44:00,
2013-07-30 13:52:00,88.0,41.0,29.78,WNW,290,6.0,-999.0,19,-99.99,,,-99.99,,2013-07-30 19:52:00,
2013-07-30 14:02:00,88.0,41.0,29.78,WSW,257,7.0,-999.0,19,-99.99,,,-99.99,,2013-07-30 20:02:00,
2013-07-30 14:12:00,88.0,41.0,29.78,WSW,257,7.0,-999.0,19,-99.99,,,-99.99,,2013-07-30 20:12:00,
2013-07-30 14:22:00,89.0,40.0,29.77,WSW,238,5.0,-999.0,18,-99.99,,,-99.99,,2013-07-30 20:22:00,
2013-07-30 14:32:00,89.0,38.0,29.75,SW,236,6.0,-999.0,17,-99.99,,,-99.99,,2013-07-30 20:32:00,
2013-07-30 14:43:00,89.0,38.0,29.75,SW,236,6.0,-999.0,17,-99.99,,,-99.99,,2013-07-30 20:43:00,
2013-07-30 14:52:00,89.0,38.0,29.76,West,281,9.0,-999.0,17,-99.99,,,-99.99,,2013-07-30 20:52:00,
2013-07-30 15:02:00,91.0,39.0,29.76,West,266,7.0,-999.0,16,-99.99,,,-99.99,,2013-07-30 21:02:00,
2013-07-30 15:12:00,91.0,39.0,29.76,West,266,7.0,-999.0,16,-99.99,,,-99.99,,2013-07-30 21:12:00,
2013-07-30 15:22:00,91.0,37.0,29.76,WNW,293,7.0,-999.0,15,-99.99,,,-99.99,,2013-07-30 21:22:00,
2013-07-30 15:32:00,90.0,36.0,29.75,West,265,9.0,-999.0,15,-99.99,,,-99.99,,2013-07-30 21:32:00,
2013-07-30 15:42:00,90.0,36.0,29.75,West,265,9.0,-999.0,15,-99.99,,,-99.99,,2013-07-30 21:42:00,
2013-07-30 15:53:00,90.0,34.0,29.76,WSW,254,9.0,-999.0,14,-99.99,,,-99.99,,2013-07-30 21:53:00,
2013-07-30 16:02:00,91.0,37.0,29.76,WSW,256,10.0,-999.0,15,-99.99,,,-99.99,,2013-07-30 22:02:00,
2013-07-30 16:12:00,91.0,37.0,29.76,WSW,256,10.0,-999.0,15,-99.99,,,-99.99,,2013-07-30 22:12:00,
2013-07-30 16:22:00,91.0,33.0,29.75,WSW,243,8.0,-999.0,13,-99.99,,,-99.99,,2013-07-30 22:22:00,
2013-07-30 16:32:00,91.0,33.0,29.75,WSW,243,8.0,-999.0,13,-99.99,,,-99.99,,2013-07-30 22:32:00,
2013-07-30 16:43:00,90.0,34.0,29.75,West,272,11.0,-999.0,14,-99.99,,,-99.99,,2013-07-30 22:43:00,
2013-07-30 16:52:00,90.0,33.0,29.76,WSW,238,7.0,-999.0,13,-99.99,,,-99.99,,2013-07-30 22:52:00,
2013-07-30 17:02:00,90.0,33.0,29.76,WSW,238,7.0,-999.0,13,-99.99,,,-99.99,,2013-07-30 23:02:00,
2013-07-30 17:12:00,90.0,33.0,29.77,SW,226,5.0,-999.0,13,-99.99,,,-99.99,,2013-07-30 23:12:00,
2013-07-30 17:22:00,90.0,31.0,29.76,West,272,12.0,-999.0,12,-99.99,,,-99.99,,2013-07-30 23:22:00,
2013-07-30 17:32:00,90.0,31.0,29.76,West,272,12.0,-999.0,12,-99.99,,,-99.99,,2013-07-30 23:32:00,
2013-07-30 17:42:00,91.0,33.0,29.76,WSW,248,7.0,-999.0,13,-99.99,,,-99.99,,2013-07-30 23:42:00,
2013-07-30 17:53:00,89.0,32.0,29.76,WSW,254,9.0,-999.0,13,-99.99,,,-99.99,,2013-07-30 23:53:00,
2013-07-30 18:02:00,89.0,32.0,29.76,WSW,254,9.0,-999.0,13,-99.99,,,-99.99,,2013-07-31 00:02:00,
2013-07-30 18:12:00,89.0,32.0,29.76,West,280,8.0,-999.0,13,-99.99,,,-99.99,,2013-07-31 00:12:00,
2013-07-30 18:22:00,90.0,33.0,29.75,WNW,300,7.0,-999.0,13,-99.99,,,-99.99,,2013-07-31 00:22:00,
2013-07-30 18:32:00,90.0,33.0,29.75,WNW,300,7.0,-999.0,13,-99.99,,,-99.99,,2013-07-31 00:32:00,
2013-07-30 18:43:00,90.0,33.0,29.75,SW,230,7.0,-999.0,13,-99.99,,,-99.99,,2013-07-31 00:43:00,
2013-07-30 18:53:00,89.0,32.0,29.72,West,274,5.0,-999.0,13,-99.99,,,-99.99,,2013-07-31 00:53:00,
2013-07-30 19:02:00,89.0,32.0,29.72,West,274,5.0,-999.0,13,-99.99,,,-99.99,,2013-07-31 01:02:00,
2013-07-30 19:12:00,89.0,32.0,29.72,West,281,5.0,-999.0,13,-99.99,,,-99.99,,2013-07-31 01:12:00,
2013-07-30 19:32:00,89.0,32.0,29.74,West,264,6.0,-999.0,13,-99.99,,,-99.99,,2013-07-31 01:32:00,
2013-07-30 19:42:00,89.0,32.0,29.74,West,269,3.0,-999.0,13,-99.99,,,-99.99,,2013-07-31 01:42:00,
2013-07-30 19:52:00,89.0,32.0,29.74,West,269,3.0,-999.0,13,-99.99,,,-99.99,,2013-07-31 01:52:00,
2013-07-30 20:02:00,88.0,31.0,29.70,West,278,4.0,-999.0,13,-99.99,,,-99.99,,2013-07-31 02:02:00,
2013-07-30 20:12:00,87.0,32.0,29.69,West,281,6.0,-999.0,14,-99.99,,,-99.99,,2013-07-31 02:12:00,
2013-07-30 20:22:00,87.0,32.0,29.69,West,281,6.0,-999.0,14,-99.99,,,-99.99,,2013-07-31 02:22:00,
2013-07-30 20:32:00,86.0,31.0,29.71,West,269,1.0,-999.0,14,-99.99,,,-99.99,,2013-07-31 02:32:00,
2013-07-30 20:42:00,86.0,31.0,29.71,West,269,1.0,-999.0,14,-99.99,,,-99.99,,2013-07-31 02:42:00,
2013-07-30 20:52:00,83.0,31.0,29.68,WNW,300,1.0,-999.0,15,-99.99,,,-99.99,,2013-07-31 02:52:00,
2013-07-30 21:02:00,83.0,31.0,29.68,WNW,300,1.0,-999.0,15,-99.99,,,-99.99,,2013-07-31 03:02:00,
2013-07-30 21:12:00,81.0,31.0,29.70,WNW,300,1.0,-999.0,16,-99.99,,,-99.99,,2013-07-31 03:12:00,
2013-07-30 21:22:00,81.0,31.0,29.71,WNW,298,1.0,-999.0,16,-99.99,,,-99.99,,2013-07-31 03:22:00,
2013-07-30 21:32:00,81.0,31.0,29.71,WNW,298,1.0,-999.0,16,-99.99,,,-99.99,,2013-07-31 03:32:00,
2013-07-30 21:42:00,77.0,30.0,29.73,WNW,300,1.0,-999.0,18,-99.99,,,-99.99,,2013-07-31 03:42:00,
2013-07-30 21:52:00,75.0,31.0,29.72,WNW,300,0.0,-999.0,20,-99.99,,,-99.99,,2013-07-31 03:52:00,
2013-07-30 22:02:00,75.0,31.0,29.72,WNW,300,0.0,-999.0,20,-99.99,,,-99.99,,2013-07-31 04:02:00,
2013-07-30 22:12:00,73.0,32.0,29.73,WNW,300,0.0,-999.0,22,-99.99,,,-99.99,,2013-07-31 04:12:00,
2013-07-30 22:22:00,73.0,32.0,29.73,WNW,300,0.0,-999.0,22,-99.99,,,-99.99,,2013-07-31 04:22:00,
2013-07-30 22:32:00,73.0,32.0,29.73,WNW,300,0.0,-999.0,22,-99.99,,,-99.99,,2013-07-31 04:32:00,
2013-07-30 22:42:00,73.0,32.0,29.73,WNW,300,0.0,-999.0,22,-99.99,,,-99.99,,2013-07-31 04:42:00,
2013-07-30 22:52:00,73.0,32.0,29.73,WNW,300,0.0,-999.0,22,-99.99,,,-99.99,,2013-07-31 04:52:00,
2013-07-30 23:52:00,68.0,38.0,29.75,NE,41,2.0,-999.0,33,-99.99,,,-99.99,,2013-07-31 05:52:00,